createdAt,value
2022-09-21T00:01:24.853Z,99.90
2022-09-21T00:03:55.202Z,99.90
2022-09-21T00:06:25.487Z,99.90
2022-09-21T00:08:53.593Z,99.90
2022-09-21T00:11:28.057Z,99.90
2022-09-21T00:13:59.777Z,99.90
2022-09-21T00:16:28.284Z,99.90
2022-09-21T00:18:55.971Z,99.90
2022-09-21T00:21:24.380Z,99.90
2022-09-21T00:23:52.026Z,99.90
2022-09-21T00:26:22.899Z,99.90
2022-09-21T00:28:59.406Z,99.90
2022-09-21T00:31:28.563Z,99.90
2022-09-21T00:33:59.048Z,99.90
2022-09-21T00:36:27.228Z,99.90
2022-09-21T00:38:57.502Z,99.90
2022-09-21T00:41:26.861Z,99.90
2022-09-21T00:44:16.519Z,99.90
2022-09-21T00:46:46.406Z,99.90
2022-09-21T00:49:15.553Z,99.90
2022-09-21T00:51:43.841Z,99.90
2022-09-21T00:54:29.930Z,99.90
2022-09-21T00:57:02.985Z,99.90
2022-09-21T00:59:34.063Z,99.90
2022-09-21T01:02:02.145Z,99.90
2022-09-21T01:04:30.284Z,99.90
2022-09-21T01:06:59.981Z,99.90
2022-09-21T01:09:28.543Z,99.90
2022-09-21T01:12:07.661Z,99.90
2022-09-21T01:14:56.953Z,99.90
2022-09-21T01:17:36.694Z,99.90
2022-09-21T01:20:16.612Z,99.90
2022-09-21T01:23:03.358Z,99.90
2022-09-21T01:25:54.605Z,99.90
2022-09-21T01:28:47.071Z,99.90
2022-09-21T01:31:22.182Z,99.90
2022-09-21T01:33:58.084Z,99.90
2022-09-21T01:36:29.388Z,99.90
2022-09-21T01:39:04.642Z,99.90
2022-09-21T01:41:33.884Z,99.90
2022-09-21T01:44:12.103Z,99.90
2022-09-21T01:46:39.873Z,99.90
2022-09-21T01:49:15.165Z,99.90
2022-09-21T01:51:48.344Z,99.90
2022-09-21T01:54:22.575Z,99.90
2022-09-21T01:57:05.366Z,99.90
2022-09-21T01:59:46.533Z,99.90
2022-09-21T02:02:22.381Z,99.90
2022-09-21T02:04:50.510Z,99.90
2022-09-21T02:07:18.835Z,99.90
2022-09-21T02:09:48.132Z,99.90
2022-09-21T02:12:19.202Z,99.90
2022-09-21T02:14:48.000Z,99.90
2022-09-21T02:17:18.339Z,99.90
2022-09-21T02:19:55.561Z,99.90
2022-09-21T02:22:49.936Z,99.90
2022-09-21T02:25:43.039Z,99.90
2022-09-21T02:28:25.451Z,99.90
2022-09-21T02:31:23.077Z,99.90
2022-09-21T02:33:59.326Z,99.90
2022-09-21T02:36:38.266Z,99.90
2022-09-21T02:39:17.864Z,99.90
2022-09-21T02:42:08.113Z,99.90
2022-09-21T02:44:40.943Z,99.90
2022-09-21T02:47:25.144Z,99.90
2022-09-21T02:49:58.375Z,99.90
2022-09-21T02:52:28.242Z,99.90
2022-09-21T02:54:56.803Z,99.90
2022-09-21T02:57:25.484Z,99.90
2022-09-21T02:59:53.381Z,99.90
2022-09-21T03:02:21.053Z,99.90
2022-09-21T03:04:49.053Z,99.90
2022-09-21T03:07:17.610Z,99.90
2022-09-21T03:09:45.237Z,99.90
2022-09-21T03:12:13.825Z,99.90
2022-09-21T03:14:41.360Z,99.90
2022-09-21T03:17:09.465Z,99.90
2022-09-21T03:19:37.002Z,99.90
2022-09-21T03:22:04.831Z,99.90
2022-09-21T03:24:47.645Z,99.90
2022-09-21T03:27:17.981Z,99.90
2022-09-21T03:29:46.233Z,99.90
2022-09-21T03:32:14.522Z,99.90
2022-09-21T03:34:42.437Z,99.90
2022-09-21T03:37:10.898Z,99.90
2022-09-21T03:39:38.520Z,99.90
2022-09-21T03:42:06.335Z,99.90
2022-09-21T03:44:33.964Z,99.90
2022-09-21T03:47:01.784Z,99.90
2022-09-21T03:49:29.354Z,99.90
2022-09-21T03:51:57.156Z,99.90
2022-09-21T03:54:25.710Z,99.90
2022-09-21T03:56:53.356Z,99.90
2022-09-21T03:59:20.928Z,99.90
2022-09-21T04:01:48.603Z,99.90
2022-09-21T04:04:16.884Z,99.90
2022-09-21T04:06:46.169Z,99.90
2022-09-21T04:09:13.834Z,99.90
2022-09-21T04:11:41.718Z,99.90
2022-09-21T04:14:12.106Z,99.90
2022-09-21T04:16:39.738Z,99.90
2022-09-21T04:19:07.369Z,99.90
2022-09-21T04:21:35.058Z,99.90
2022-09-21T04:24:02.779Z,99.90
2022-09-21T04:26:33.332Z,99.90
2022-09-21T04:29:01.855Z,99.90
2022-09-21T04:31:30.392Z,99.90
2022-09-21T04:33:58.397Z,99.90
2022-09-21T04:36:27.976Z,99.90
2022-09-21T04:38:55.598Z,99.90
2022-09-21T04:41:23.140Z,99.90
2022-09-21T04:43:50.709Z,99.90
2022-09-21T04:46:20.676Z,99.90
2022-09-21T04:48:49.891Z,99.90
2022-09-21T04:51:17.504Z,99.90
2022-09-21T04:53:45.799Z,99.90
2022-09-21T04:56:15.426Z,99.90
2022-09-21T04:58:43.823Z,99.90
2022-09-21T05:01:11.983Z,99.90
2022-09-21T05:03:39.720Z,99.90
2022-09-21T05:06:07.875Z,99.90
2022-09-21T05:08:54.114Z,99.90
2022-09-21T05:11:22.789Z,99.90
2022-09-21T05:13:51.061Z,99.90
2022-09-21T05:16:19.341Z,99.90
2022-09-21T05:18:47.148Z,99.90
2022-09-21T05:21:15.492Z,99.90
2022-09-21T05:23:43.304Z,99.90
2022-09-21T05:26:10.917Z,99.90
2022-09-21T05:28:40.297Z,99.90
2022-09-21T05:31:34.539Z,99.90
2022-09-21T05:34:29.444Z,99.90
2022-09-21T05:37:31.172Z,99.90
2022-09-21T05:39:59.246Z,99.90
2022-09-21T05:42:27.102Z,99.90
2022-09-21T05:44:55.383Z,99.90
2022-09-21T05:47:40.542Z,99.90
2022-09-21T05:50:29.387Z,99.90
2022-09-21T05:53:11.929Z,99.90
2022-09-21T05:56:03.065Z,99.90
2022-09-21T05:58:59.465Z,99.90
2022-09-21T06:02:08.162Z,99.90
2022-09-21T06:04:36.091Z,99.90
2022-09-21T06:07:03.783Z,99.90
2022-09-21T06:09:31.361Z,99.90
2022-09-21T06:11:59.715Z,99.90
2022-09-21T06:14:27.339Z,99.90
2022-09-21T06:16:54.921Z,99.90
2022-09-21T06:19:22.530Z,99.90
2022-09-21T06:21:50.200Z,99.90
2022-09-21T06:24:17.763Z,99.90
2022-09-21T06:26:45.415Z,99.90
2022-09-21T06:29:12.983Z,99.90
2022-09-21T06:31:40.561Z,99.90
2022-09-21T06:34:08.230Z,99.90
2022-09-21T06:36:45.561Z,99.90
2022-09-21T06:39:13.661Z,99.90
2022-09-21T06:41:41.270Z,99.90
2022-09-21T06:44:08.860Z,99.90
2022-09-21T06:46:36.449Z,99.90
2022-09-21T06:49:04.082Z,99.90
2022-09-21T06:51:31.634Z,99.90
2022-09-21T06:53:59.421Z,99.90
2022-09-21T06:56:27.035Z,99.90
2022-09-21T06:58:55.485Z,99.90
2022-09-21T07:01:23.428Z,99.90
2022-09-21T07:03:52.374Z,99.90
2022-09-21T07:06:20.500Z,99.90
2022-09-21T07:11:36.116Z,99.90
2022-09-21T07:14:04.283Z,99.90
2022-09-21T07:16:31.902Z,99.90
2022-09-21T07:19:10.173Z,99.90
2022-09-21T07:21:38.205Z,99.90
2022-09-21T07:24:11.062Z,99.90
2022-09-21T07:26:39.659Z,99.90
2022-09-21T07:29:07.388Z,99.90
2022-09-21T07:31:35.162Z,99.90
2022-09-21T07:34:04.572Z,99.90
2022-09-21T07:36:32.429Z,99.90
2022-09-21T07:39:00.073Z,99.90
2022-09-21T07:41:27.628Z,99.90
2022-09-21T07:43:55.470Z,99.90
2022-09-21T07:46:24.986Z,99.90
2022-09-21T07:48:56.716Z,99.90
2022-09-21T07:51:24.874Z,99.90
2022-09-21T07:53:56.813Z,99.90
2022-09-21T07:56:25.326Z,99.90
2022-09-21T07:59:08.272Z,99.90
2022-09-21T08:01:37.071Z,99.90
2022-09-21T08:04:06.833Z,99.90
2022-09-21T08:06:36.197Z,99.90
2022-09-21T08:09:04.356Z,99.90
2022-09-21T08:11:33.218Z,99.90
2022-09-21T08:14:03.197Z,99.90
2022-09-21T08:16:32.234Z,99.90
2022-09-21T08:18:59.967Z,99.90
2022-09-21T08:21:28.339Z,99.90
2022-09-21T08:23:56.007Z,99.90
2022-09-21T08:26:24.824Z,99.90
2022-09-21T08:28:53.767Z,99.90
2022-09-21T08:31:23.116Z,99.90
2022-09-21T08:33:52.184Z,99.90
2022-09-21T08:36:20.091Z,99.90
2022-09-21T08:38:48.316Z,99.90
2022-09-21T08:41:23.796Z,99.90
2022-09-21T08:44:05.134Z,99.90
2022-09-21T08:46:35.594Z,99.90
2022-09-21T08:49:16.961Z,99.90
2022-09-21T08:51:54.638Z,99.90
2022-09-21T08:54:44.001Z,99.90
2022-09-21T08:57:16.220Z,99.90
2022-09-21T08:59:48.615Z,99.90
2022-09-21T09:02:31.051Z,99.90
2022-09-21T09:05:16.688Z,99.90
2022-09-21T09:08:05.798Z,99.90
2022-09-21T09:10:50.657Z,99.90
2022-09-21T09:14:01.925Z,99.90
2022-09-21T09:16:51.145Z,99.90
2022-09-21T09:19:26.862Z,99.90
2022-09-21T09:21:56.274Z,99.90
2022-09-21T09:24:48.934Z,99.90
2022-09-21T09:27:41.791Z,99.90
2022-09-21T09:30:18.339Z,99.90
2022-09-21T09:32:48.703Z,99.90
2022-09-21T09:35:52.974Z,99.90
2022-09-21T09:38:48.641Z,99.90
2022-09-21T09:41:38.902Z,99.90
2022-09-21T09:44:39.673Z,99.90
2022-09-21T09:47:36.571Z,99.90
2022-09-21T09:50:25.937Z,99.90
2022-09-21T09:53:05.145Z,91.70
2022-09-21T09:56:02.407Z,82.10
2022-09-21T09:58:42.374Z,79.30
2022-09-21T10:01:29.968Z,62.30
2022-09-21T10:04:10.802Z,40.30
2022-09-21T10:06:43.716Z,36.10
2022-09-21T10:09:31.842Z,1.00
2022-09-21T10:12:15.597Z,1.00
2022-09-21T10:14:50.345Z,1.00
2022-09-21T10:17:19.134Z,1.00
2022-09-21T10:19:47.142Z,1.00
2022-09-21T10:22:20.127Z,1.00
2022-09-21T10:24:53.381Z,1.00
2022-09-21T10:27:30.907Z,1.00
2022-09-21T10:29:58.561Z,1.00
2022-09-21T10:32:29.227Z,1.00
2022-09-21T10:35:08.630Z,1.00
2022-09-21T10:37:42.306Z,1.00
2022-09-21T10:40:37.263Z,1.00
2022-09-21T10:43:05.179Z,99.90
2022-09-21T10:45:37.035Z,99.90
2022-09-21T10:48:09.858Z,1.00
2022-09-21T10:50:39.291Z,99.90
2022-09-21T10:53:09.622Z,65.80
2022-09-21T10:56:11.573Z,1.00
2022-09-21T10:58:36.958Z,1.00
2022-09-21T11:01:13.543Z,1.00
2022-09-21T11:04:03.235Z,1.00
2022-09-21T11:06:38.074Z,1.00
2022-09-21T11:09:12.418Z,1.00
2022-09-21T11:12:04.337Z,1.00
2022-09-21T11:15:03.756Z,1.00
2022-09-21T11:18:02.079Z,1.00
2022-09-21T11:20:46.210Z,1.00
2022-09-21T11:23:25.126Z,99.90
2022-09-21T11:26:06.818Z,99.90
2022-09-21T11:28:51.156Z,99.90
2022-09-21T11:31:32.696Z,99.90
2022-09-21T11:34:19.486Z,99.90
2022-09-21T11:36:56.512Z,99.90
2022-09-21T11:40:02.129Z,99.90
2022-09-21T11:42:33.450Z,99.90
2022-09-21T11:45:03.040Z,99.90
2022-09-21T11:47:39.515Z,99.90
2022-09-21T11:50:30.303Z,99.90
2022-09-21T11:53:19.501Z,99.90
2022-09-21T11:56:05.884Z,99.90
2022-09-21T11:58:59.976Z,99.90
2022-09-21T12:01:36.704Z,99.90
2022-09-21T12:04:24.144Z,99.90
2022-09-21T12:07:15.622Z,99.90
2022-09-21T12:10:18.921Z,99.90
2022-09-21T12:12:46.517Z,99.90
2022-09-21T12:15:29.549Z,99.90
2022-09-21T12:18:14.897Z,99.90
2022-09-21T12:21:00.467Z,99.90
2022-09-21T12:23:45.212Z,99.90
2022-09-21T12:26:19.095Z,99.90
2022-09-21T12:28:54.828Z,99.90
2022-09-21T12:31:30.378Z,99.90
2022-09-21T12:34:04.947Z,99.90
2022-09-21T12:36:44.471Z,99.90
2022-09-21T12:39:37.055Z,99.90
2022-09-21T12:42:25.553Z,99.90
2022-09-21T12:45:06.742Z,99.90
2022-09-21T12:47:58.677Z,99.90
2022-09-21T12:50:34.755Z,99.90
2022-09-21T12:53:04.017Z,99.90
2022-09-21T12:55:44.418Z,99.90
2022-09-21T12:58:34.692Z,99.90
2022-09-21T13:01:27.031Z,99.90
2022-09-21T13:04:17.578Z,99.90
2022-09-21T13:07:38.163Z,99.90
2022-09-21T13:10:28.114Z,99.90
2022-09-21T13:13:02.055Z,99.90
2022-09-21T13:15:49.834Z,99.90
2022-09-21T13:18:39.034Z,99.90
2022-09-21T13:21:17.423Z,99.90
2022-09-21T13:23:54.929Z,99.90
2022-09-21T13:26:39.362Z,99.90
2022-09-21T13:29:18.982Z,99.90
2022-09-21T13:32:13.683Z,99.90
2022-09-21T13:34:43.526Z,99.90
2022-09-21T13:37:27.559Z,99.90
2022-09-21T13:39:57.872Z,99.90
2022-09-21T13:42:40.127Z,99.90
2022-09-21T13:45:13.699Z,99.90
2022-09-21T13:47:43.355Z,99.90
2022-09-21T13:50:23.302Z,99.90
2022-09-21T13:53:23.000Z,99.90
2022-09-21T13:55:56.715Z,99.90
2022-09-21T13:58:28.995Z,99.90
2022-09-21T14:00:59.055Z,99.90
2022-09-21T14:03:34.487Z,99.90
2022-09-21T14:06:06.130Z,99.90
2022-09-21T14:08:38.153Z,99.90
2022-09-21T14:11:16.042Z,99.90
2022-09-21T14:14:00.624Z,99.90
2022-09-21T14:16:41.779Z,99.90
2022-09-21T14:19:18.417Z,99.90
2022-09-21T14:22:04.285Z,99.90
2022-09-21T14:24:43.939Z,99.90
2022-09-21T14:27:45.891Z,99.90
2022-09-21T14:30:21.455Z,99.90
2022-09-21T14:33:01.156Z,99.90
2022-09-21T14:35:43.244Z,99.90
2022-09-21T14:38:19.802Z,99.90
2022-09-21T14:40:52.912Z,99.90
2022-09-21T14:43:35.252Z,99.90
2022-09-21T14:46:25.497Z,99.90
2022-09-21T14:49:31.190Z,99.90
2022-09-21T14:52:27.885Z,99.90
2022-09-21T14:55:26.678Z,99.90
2022-09-21T14:58:14.242Z,99.90
2022-09-21T15:00:49.663Z,99.90
2022-09-21T15:03:30.584Z,99.90
2022-09-21T15:06:53.380Z,99.90
2022-09-21T15:09:59.664Z,99.90
2022-09-21T15:12:56.026Z,99.90
2022-09-21T15:15:29.538Z,99.90
2022-09-21T15:18:01.836Z,99.90
2022-09-21T15:20:32.246Z,99.90
2022-09-21T15:23:00.906Z,99.90
2022-09-21T15:25:33.188Z,99.90
2022-09-21T15:28:02.832Z,99.90
2022-09-21T15:30:33.161Z,99.90
2022-09-21T15:33:02.426Z,99.90
2022-09-21T15:35:33.036Z,99.90
2022-09-21T15:38:01.393Z,99.90
2022-09-21T15:40:45.934Z,99.90
2022-09-21T15:43:16.802Z,99.90
2022-09-21T15:46:01.411Z,99.90
2022-09-21T15:48:35.011Z,99.90
2022-09-21T15:51:07.471Z,99.90
2022-09-21T15:53:42.695Z,99.90
2022-09-21T15:56:23.216Z,99.90
2022-09-21T15:58:51.767Z,99.90
2022-09-21T16:01:23.590Z,99.90
2022-09-21T16:04:13.427Z,99.90
2022-09-21T16:06:45.383Z,99.90
2022-09-21T16:09:29.954Z,99.90
2022-09-21T16:11:58.362Z,99.90
2022-09-21T16:14:44.781Z,99.90
2022-09-21T16:17:12.656Z,99.90
2022-09-21T16:20:03.751Z,99.90
2022-09-21T16:22:44.149Z,99.90
2022-09-21T16:25:26.013Z,99.90
2022-09-21T16:28:02.685Z,99.90
2022-09-21T16:30:44.584Z,99.90
2022-09-21T16:33:40.971Z,99.90
2022-09-21T16:36:17.703Z,99.90
2022-09-21T16:38:47.184Z,99.90
2022-09-21T16:41:19.333Z,99.90
2022-09-21T16:43:47.082Z,99.90
2022-09-21T16:46:14.686Z,99.90
2022-09-21T16:48:42.414Z,99.90
2022-09-21T16:51:14.607Z,99.90
2022-09-21T16:53:42.170Z,99.90
2022-09-21T16:56:14.112Z,99.90
2022-09-21T16:58:45.310Z,99.90
2022-09-21T17:01:15.667Z,1.00
2022-09-21T17:03:43.288Z,99.90
2022-09-21T17:06:21.761Z,1.00
2022-09-21T17:08:49.806Z,99.90
2022-09-21T17:11:21.726Z,1.00
2022-09-21T17:13:50.281Z,1.00
2022-09-21T17:16:19.779Z,1.00
2022-09-21T17:18:48.732Z,99.90
2022-09-21T17:21:16.889Z,1.00
2022-09-21T17:23:45.332Z,99.90
2022-09-21T17:26:19.272Z,1.00
2022-09-21T17:28:47.483Z,1.00
2022-09-21T17:31:16.486Z,1.00
2022-09-21T17:33:46.048Z,1.00
2022-09-21T17:36:14.767Z,1.00
2022-09-21T17:38:42.934Z,1.00
2022-09-21T17:41:32.403Z,99.90
2022-09-21T17:44:17.477Z,1.00
2022-09-21T17:46:54.010Z,1.00
2022-09-21T17:49:21.863Z,1.00
2022-09-21T17:52:08.210Z,1.00
2022-09-21T17:54:39.868Z,99.90
2022-09-21T17:57:27.155Z,1.00
2022-09-21T18:00:03.707Z,99.90
2022-09-21T18:02:31.429Z,99.90
2022-09-21T18:05:03.922Z,99.90
2022-09-21T18:07:32.038Z,1.00
2022-09-21T18:09:59.947Z,1.00
2022-09-21T18:12:48.602Z,1.00
2022-09-21T18:15:25.093Z,1.00
2022-09-21T18:18:31.740Z,1.00
2022-09-21T18:21:13.752Z,1.00
2022-09-21T18:23:50.474Z,1.00
2022-09-21T18:26:18.265Z,1.00
2022-09-21T18:28:47.634Z,1.00
2022-09-21T18:31:52.498Z,1.00
2022-09-21T18:34:51.052Z,1.00
2022-09-21T18:37:18.736Z,1.00
2022-09-21T18:39:52.662Z,1.00
2022-09-21T18:42:28.157Z,1.00
2022-09-21T18:45:17.205Z,1.00
2022-09-21T18:47:50.816Z,1.00
2022-09-21T18:50:41.515Z,1.00
2022-09-21T18:53:15.821Z,1.00
2022-09-21T18:55:43.674Z,1.00
2022-09-21T18:58:11.990Z,1.00
2022-09-21T19:00:39.862Z,1.00
2022-09-21T19:03:19.050Z,1.00
2022-09-21T19:06:03.785Z,1.00
2022-09-21T19:08:40.353Z,1.00
2022-09-21T19:11:32.370Z,1.00
2022-09-21T19:14:17.954Z,1.00
2022-09-21T19:16:57.683Z,1.00
2022-09-21T19:19:44.474Z,1.00
2022-09-21T19:22:25.327Z,1.00
2022-09-21T19:25:12.731Z,1.00
2022-09-21T19:27:43.819Z,1.00
2022-09-21T19:30:14.594Z,1.00
2022-09-21T19:32:45.038Z,1.00
2022-09-21T19:35:19.503Z,1.00
2022-09-21T19:37:48.264Z,1.00
2022-09-21T19:40:17.841Z,1.00
2022-09-21T19:42:51.975Z,1.00
2022-09-21T19:45:29.867Z,1.00
2022-09-21T19:48:05.879Z,1.00
2022-09-21T19:50:41.288Z,1.00
2022-09-21T19:53:29.713Z,1.00
2022-09-21T19:56:18.907Z,1.00
2022-09-21T19:59:05.557Z,1.00
2022-09-21T20:01:38.837Z,1.00
2022-09-21T20:04:07.332Z,16.20
2022-09-21T20:06:45.647Z,12.20
2022-09-21T20:09:21.912Z,26.90
2022-09-21T20:11:54.505Z,31.30
2022-09-21T20:14:45.573Z,41.90
2022-09-21T20:17:20.112Z,33.10
2022-09-21T20:19:52.989Z,37.60
2022-09-21T20:22:40.541Z,46.50
2022-09-21T20:25:56.813Z,36.80
2022-09-21T20:28:24.811Z,53.00
2022-09-21T20:30:54.596Z,58.30
2022-09-21T20:33:24.070Z,75.40
2022-09-21T20:35:55.922Z,92.70
2022-09-21T20:38:24.121Z,97.00
2022-09-21T20:40:51.946Z,99.90
2022-09-21T20:43:19.824Z,99.90
2022-09-21T20:45:50.237Z,99.90
2022-09-21T20:48:17.954Z,99.90
2022-09-21T20:50:48.010Z,99.90
2022-09-21T20:53:16.505Z,97.10
2022-09-21T20:56:00.905Z,90.80
2022-09-21T20:58:29.903Z,96.60
2022-09-21T21:01:03.914Z,96.90
2022-09-21T21:03:31.499Z,99.90
2022-09-21T21:06:18.732Z,96.60
2022-09-21T21:08:46.914Z,93.30
2022-09-21T21:11:14.532Z,95.90
2022-09-21T21:13:42.446Z,86.30
2022-09-21T21:16:12.406Z,99.90
2022-09-21T21:18:42.769Z,99.90
2022-09-21T21:21:10.423Z,99.90
2022-09-21T21:23:57.083Z,99.90
2022-09-21T21:26:44.010Z,99.90
2022-09-21T21:29:12.359Z,99.90
2022-09-21T21:31:40.234Z,99.90
2022-09-21T21:34:07.964Z,99.90
2022-09-21T21:36:35.674Z,99.90
2022-09-21T21:39:03.371Z,99.90
2022-09-21T21:41:32.528Z,99.90
2022-09-21T21:44:00.358Z,99.90
2022-09-21T21:46:28.107Z,99.90
2022-09-21T21:48:55.715Z,99.90
2022-09-21T21:51:23.313Z,99.90
2022-09-21T21:53:51.424Z,99.90
2022-09-21T21:56:21.254Z,99.90
2022-09-21T21:58:53.418Z,99.90
2022-09-21T22:01:26.318Z,99.90
2022-09-21T22:03:56.363Z,99.90
2022-09-21T22:06:24.867Z,99.90
2022-09-21T22:08:54.024Z,99.90
2022-09-21T22:11:22.625Z,99.90
2022-09-21T22:13:50.687Z,99.90
2022-09-21T22:16:20.000Z,99.90
2022-09-21T22:18:48.455Z,99.90
2022-09-21T22:21:21.526Z,99.90
2022-09-21T22:23:53.654Z,99.90
2022-09-21T22:26:22.253Z,99.90
2022-09-21T22:28:53.221Z,99.90
2022-09-21T22:31:23.129Z,99.90
2022-09-21T22:33:50.724Z,99.90
2022-09-21T22:36:20.272Z,99.90
2022-09-21T22:38:49.407Z,99.90
2022-09-21T22:41:20.623Z,99.90
2022-09-21T22:43:50.357Z,99.90
2022-09-21T22:46:18.702Z,99.90
2022-09-21T22:48:47.636Z,99.90
2022-09-21T22:51:17.155Z,99.90
2022-09-21T22:53:45.677Z,99.90
2022-09-21T22:56:16.641Z,99.90
2022-09-21T22:58:46.798Z,99.90
2022-09-21T23:01:20.448Z,99.90
2022-09-21T23:03:50.782Z,99.90
2022-09-21T23:06:20.259Z,99.90
2022-09-21T23:08:52.113Z,99.90
2022-09-21T23:11:23.427Z,99.90
2022-09-21T23:13:51.022Z,99.90
2022-09-21T23:16:19.751Z,99.90
2022-09-21T23:18:48.740Z,99.90
2022-09-21T23:21:18.862Z,99.90
2022-09-21T23:23:47.400Z,99.90
2022-09-21T23:26:17.853Z,99.90
2022-09-21T23:28:50.767Z,99.90
2022-09-21T23:31:18.642Z,99.90
2022-09-21T23:33:48.866Z,99.90
2022-09-21T23:36:19.603Z,99.90
2022-09-21T23:38:48.439Z,99.90
2022-09-21T23:41:18.572Z,99.90
2022-09-21T23:43:46.461Z,99.90
2022-09-21T23:46:16.839Z,99.90
2022-09-21T23:48:45.206Z,99.90
2022-09-21T23:51:13.312Z,99.90
2022-09-21T23:53:40.955Z,99.90
2022-09-21T23:56:10.974Z,99.90
2022-09-21T23:58:38.547Z,99.90
